sensor_id;sensor_type;location;lat;lon;timestamp;pressure;altitude;pressure_sealevel;temperature
49557;BMP280;35462;45.048;7.666;2023-07-31T00:05:27;98580.88;;;28.37
49557;BMP280;35462;45.048;7.666;2023-07-31T00:20:47;98574.03;;;28.23
49557;BMP280;35462;45.048;7.666;2023-07-31T00:36:06;98576.81;;;28.10
49557;BMP280;35462;45.048;7.666;2023-07-31T00:51:26;98569.16;;;27.88
49557;BMP280;35462;45.048;7.666;2023-07-31T01:07:08;98590.34;;;27.83
49557;BMP280;35462;45.048;7.666;2023-07-31T01:22:53;98576.94;;;27.72
49557;BMP280;35462;45.048;7.666;2023-07-31T01:38:13;98576.69;;;27.62
49557;BMP280;35462;45.048;7.666;2023-07-31T01:53:34;98575.75;;;27.47
49557;BMP280;35462;45.048;7.666;2023-07-31T02:08:53;98578.78;;;27.43
49557;BMP280;35462;45.048;7.666;2023-07-31T02:24:13;98590.25;;;27.29
49557;BMP280;35462;45.048;7.666;2023-07-31T02:39:32;98594.50;;;27.25
49557;BMP280;35462;45.048;7.666;2023-07-31T02:54:52;98582.78;;;27.17
49557;BMP280;35462;45.048;7.666;2023-07-31T03:10:11;98590.22;;;27.03
49557;BMP280;35462;45.048;7.666;2023-07-31T03:25:31;98594.69;;;26.88
49557;BMP280;35462;45.048;7.666;2023-07-31T03:40:51;98635.06;;;26.84
49557;BMP280;35462;45.048;7.666;2023-07-31T03:56:10;98631.78;;;26.72
49557;BMP280;35462;45.048;7.666;2023-07-31T04:11:29;98627.16;;;26.55
49557;BMP280;35462;45.048;7.666;2023-07-31T04:26:49;98638.72;;;26.42
49557;BMP280;35462;45.048;7.666;2023-07-31T04:42:09;98648.03;;;26.47
49557;BMP280;35462;45.048;7.666;2023-07-31T04:57:28;98660.91;;;26.59
49557;BMP280;35462;45.048;7.666;2023-07-31T05:12:48;98687.78;;;26.63
49557;BMP280;35462;45.048;7.666;2023-07-31T05:28:07;98687.47;;;26.66
49557;BMP280;35462;45.048;7.666;2023-07-31T05:43:27;98701.88;;;26.79
49557;BMP280;35462;45.048;7.666;2023-07-31T05:58:46;98696.50;;;27.05
49557;BMP280;35462;45.048;7.666;2023-07-31T06:14:07;98698.00;;;27.32
49557;BMP280;35462;45.048;7.666;2023-07-31T06:29:27;98710.56;;;27.35
49557;BMP280;35462;45.048;7.666;2023-07-31T06:44:46;98715.69;;;28.77
49557;BMP280;35462;45.048;7.666;2023-07-31T07:00:06;98713.84;;;29.83
49557;BMP280;35462;45.048;7.666;2023-07-31T07:15:26;98728.25;;;31.76
49557;BMP280;35462;45.048;7.666;2023-07-31T07:30:51;98720.34;;;34.21
49557;BMP280;35462;45.048;7.666;2023-07-31T07:46:10;98711.44;;;33.01
49557;BMP280;35462;45.048;7.666;2023-07-31T08:01:29;98717.66;;;33.01
49557;BMP280;35462;45.048;7.666;2023-07-31T08:16:49;98730.41;;;33.06
49557;BMP280;35462;45.048;7.666;2023-07-31T08:32:08;98715.72;;;33.71
49557;BMP280;35462;45.048;7.666;2023-07-31T08:47:28;98711.16;;;34.09
49557;BMP280;35462;45.048;7.666;2023-07-31T09:03:02;98706.00;;;33.87
49557;BMP280;35462;45.048;7.666;2023-07-31T09:18:21;98700.34;;;33.42
49557;BMP280;35462;45.048;7.666;2023-07-31T09:33:55;98685.81;;;33.32
49557;BMP280;35462;45.048;7.666;2023-07-31T09:49:17;98669.69;;;33.02
49557;BMP280;35462;45.048;7.666;2023-07-31T10:04:36;98659.72;;;32.73
49557;BMP280;35462;45.048;7.666;2023-07-31T10:19:59;98667.09;;;32.88
49557;BMP280;35462;45.048;7.666;2023-07-31T10:35:21;98639.22;;;32.91
49557;BMP280;35462;45.048;7.666;2023-07-31T10:51:29;98626.34;;;32.43
49557;BMP280;35462;45.048;7.666;2023-07-31T11:06:30;98620.56;;;32.56
49557;BMP280;35462;45.048;7.666;2023-07-31T11:21:49;98600.69;;;32.82
49557;BMP280;35462;45.048;7.666;2023-07-31T11:37:09;98586.03;;;32.53
49557;BMP280;35462;45.048;7.666;2023-07-31T11:52:32;98558.22;;;32.32
49557;BMP280;35462;45.048;7.666;2023-07-31T12:07:54;98539.94;;;32.35
49557;BMP280;35462;45.048;7.666;2023-07-31T12:23:19;98512.47;;;32.51
49557;BMP280;35462;45.048;7.666;2023-07-31T12:38:46;98496.69;;;32.59
49557;BMP280;35462;45.048;7.666;2023-07-31T12:54:07;98483.19;;;32.54
49557;BMP280;35462;45.048;7.666;2023-07-31T13:09:26;98477.97;;;32.32
49557;BMP280;35462;45.048;7.666;2023-07-31T13:24:46;98456.75;;;32.32
49557;BMP280;35462;45.048;7.666;2023-07-31T13:40:05;98447.66;;;32.30
49557;BMP280;35462;45.048;7.666;2023-07-31T13:55:25;98419.31;;;32.44
49557;BMP280;35462;45.048;7.666;2023-07-31T14:10:44;98407.53;;;32.51
49557;BMP280;35462;45.048;7.666;2023-07-31T14:26:04;98388.69;;;32.64
49557;BMP280;35462;45.048;7.666;2023-07-31T14:41:23;98380.56;;;32.57
49557;BMP280;35462;45.048;7.666;2023-07-31T14:56:43;98377.88;;;32.40
49557;BMP280;35462;45.048;7.666;2023-07-31T15:12:02;98367.72;;;32.16
49557;BMP280;35462;45.048;7.666;2023-07-31T15:27:22;98350.56;;;32.16
49557;BMP280;35462;45.048;7.666;2023-07-31T15:42:41;98332.91;;;32.09
49557;BMP280;35462;45.048;7.666;2023-07-31T15:58:01;98321.16;;;32.00
49557;BMP280;35462;45.048;7.666;2023-07-31T16:13:20;98305.84;;;31.97
49557;BMP280;35462;45.048;7.666;2023-07-31T16:28:40;98298.91;;;31.96
49557;BMP280;35462;45.048;7.666;2023-07-31T16:43:59;98287.94;;;31.96
49557;BMP280;35462;45.048;7.666;2023-07-31T16:59:19;98284.72;;;31.90
49557;BMP280;35462;45.048;7.666;2023-07-31T17:14:38;98289.75;;;31.84
49557;BMP280;35462;45.048;7.666;2023-07-31T17:29:58;98298.75;;;31.77
49557;BMP280;35462;45.048;7.666;2023-07-31T17:45:17;98290.78;;;31.71
49557;BMP280;35462;45.048;7.666;2023-07-31T18:00:37;98303.19;;;31.55
49557;BMP280;35462;45.048;7.666;2023-07-31T18:15:56;98317.13;;;31.50
49557;BMP280;35462;45.048;7.666;2023-07-31T18:31:16;98327.97;;;31.41
49557;BMP280;35462;45.048;7.666;2023-07-31T18:46:35;98339.97;;;31.28
49557;BMP280;35462;45.048;7.666;2023-07-31T19:01:55;98340.25;;;31.15
49557;BMP280;35462;45.048;7.666;2023-07-31T19:17:14;98357.69;;;31.03
49557;BMP280;35462;45.048;7.666;2023-07-31T19:32:34;98366.88;;;30.91
49557;BMP280;35462;45.048;7.666;2023-07-31T19:47:53;98374.81;;;30.72
49557;BMP280;35462;45.048;7.666;2023-07-31T20:03:13;98364.66;;;30.65
49557;BMP280;35462;45.048;7.666;2023-07-31T20:18:32;98366.84;;;30.59
49557;BMP280;35462;45.048;7.666;2023-07-31T20:33:52;98358.88;;;30.53
49557;BMP280;35462;45.048;7.666;2023-07-31T20:49:11;98360.56;;;30.49
49557;BMP280;35462;45.048;7.666;2023-07-31T21:04:31;98364.19;;;30.44
49557;BMP280;35462;45.048;7.666;2023-07-31T21:19:50;98346.94;;;30.34
49557;BMP280;35462;45.048;7.666;2023-07-31T21:35:10;98330.19;;;30.23
49557;BMP280;35462;45.048;7.666;2023-07-31T21:50:29;98317.16;;;30.14
49557;BMP280;35462;45.048;7.666;2023-07-31T22:05:49;98299.84;;;30.04
49557;BMP280;35462;45.048;7.666;2023-07-31T22:21:08;98296.78;;;29.93
49557;BMP280;35462;45.048;7.666;2023-07-31T22:36:28;98287.16;;;29.84
49557;BMP280;35462;45.048;7.666;2023-07-31T22:51:47;98258.78;;;29.72
49557;BMP280;35462;45.048;7.666;2023-07-31T23:07:07;98255.22;;;29.47
49557;BMP280;35462;45.048;7.666;2023-07-31T23:22:26;98238.66;;;29.31
49557;BMP280;35462;45.048;7.666;2023-07-31T23:37:45;98230.69;;;29.10
49557;BMP280;35462;45.048;7.666;2023-07-31T23:53:05;98209.03;;;28.97
